Licenciado Manuel Crescencio Rejon Int Airport
MMMD : now visible

Airfield :











YOU CAN JOIN US ON...

 
LOGIN :

Register | Disclaimer

   EN    FR    IT 

 









Legend :    VFR   Marginal VFR   IFR   Intensive IFR   Very Intensive IFR
Visi :
Ceiling :
>= 8 km
>= 3000ft
5 to 8 km
1000 to 3000 ft
1500m to 5 km
500 to 1000 ft
800 to 1500m
200 to 500 ft
< 800m
< 200 ft
Symbols :   Thunderstorms  Fog  Heavy snow  Heavy precipitations  Wind > 20 kt






- Airport Elevation : 38 ft
- IATA code : MID


MMMD - Licenciado Manuel Crescencio Rejon Int

CURRENT METAR :
  • 291044Z 00000KT 7SM SKC 21/20 A2989

EXPIRED METARs :
  • 290945Z 11004KT 7SM SKC 21/20 A2987

TAF TAF MMMD
Valid from the 29 at 12:00 until the 30 at 18:00 UTC


291124Z 2912/3018 06005KT P6SM SCT020 TX31/2919Z TN21/2912Z
TEMPO 2914/2918 3SM -RA BR BKN015CB
FM291800 34012KT 4SM -RA BKN020 OVC070
TEMPO 2918/2922 2SM TSRA BKN012CB
FM292200 33010KT P6SM BKN020 BKN080
FM300600 36010KT P6SM SCT020 BKN080
FM301700 03012KT P6SM BKN020 BKN250



MET'MAP, your aeronautical weather chart ! - Copyright ORBIFLY December 2007 - Disclaimer

ORBIFLY MET'MAP TEAM :

Programming & Development : Alexandra Zaïnal
Concept & original design : Baudouin d'Aumeries
Assistance for programming : Marc-Olivier Méhu
Technical & hardware support : Manuel Goepfert

Contact : metmap@orbifly.com




SOURCES & CREDITS :

   NOAA       Earth
Advisory